createdAt,value
2018-08-11T00:00:24.862Z,0.00
2018-08-11T00:01:24.862Z,0.00
2018-08-11T00:02:24.865Z,0.00
2018-08-11T00:03:24.867Z,0.00
2018-08-11T00:04:24.910Z,0.00
2018-08-11T00:05:24.858Z,0.00
2018-08-11T00:06:24.854Z,0.00
2018-08-11T00:07:24.854Z,0.00
2018-08-11T00:08:24.855Z,0.00
2018-08-11T00:09:24.852Z,0.00
2018-08-11T00:10:24.846Z,0.00
2018-08-11T00:11:24.845Z,0.00
2018-08-11T00:12:24.843Z,0.00
2018-08-11T00:13:24.842Z,0.00
2018-08-11T00:14:24.845Z,0.00
2018-08-11T00:15:24.845Z,0.00
2018-08-11T00:16:24.842Z,0.00
2018-08-11T00:17:24.841Z,0.00
2018-08-11T00:18:24.835Z,0.00
2018-08-11T00:19:24.833Z,0.00
2018-08-11T00:20:24.831Z,0.00
2018-08-11T00:21:24.833Z,0.00
2018-08-11T00:22:24.832Z,0.00
2018-08-11T00:23:24.831Z,0.00
2018-08-11T00:24:24.826Z,0.00
2018-08-11T00:25:24.824Z,0.00
2018-08-11T00:26:24.827Z,0.00
2018-08-11T00:27:24.825Z,0.00
2018-08-11T00:28:24.825Z,0.00
2018-08-11T00:29:24.823Z,0.00
2018-08-11T00:30:24.818Z,0.00
2018-08-11T00:31:24.816Z,0.00
2018-08-11T00:32:24.813Z,0.00
2018-08-11T00:33:24.812Z,0.00
2018-08-11T00:34:24.817Z,0.00
2018-08-11T00:35:24.816Z,0.00
2018-08-11T00:36:24.827Z,0.00
2018-08-11T00:37:24.811Z,0.00
2018-08-11T00:38:24.806Z,0.00
2018-08-11T00:39:24.805Z,0.00
2018-08-11T00:40:24.807Z,0.00
2018-08-11T00:41:24.806Z,0.00
2018-08-11T00:42:24.800Z,0.00
2018-08-11T00:43:24.799Z,0.00
2018-08-11T00:44:24.798Z,0.00
2018-08-11T00:45:24.796Z,0.00
2018-08-11T00:46:24.799Z,0.00
2018-08-11T00:47:24.799Z,0.00
2018-08-11T00:48:24.797Z,0.00
2018-08-11T00:49:24.822Z,0.00
2018-08-11T00:50:24.790Z,0.00
2018-08-11T00:51:24.788Z,0.00
2018-08-11T00:52:24.789Z,0.00
2018-08-11T00:53:24.784Z,0.00
2018-08-11T00:54:24.788Z,0.00
2018-08-11T00:55:24.787Z,0.00
2018-08-11T00:56:24.780Z,0.00
2018-08-11T00:57:24.780Z,0.00
2018-08-11T00:58:24.782Z,0.00
2018-08-11T00:59:24.781Z,0.00
2018-08-11T01:00:24.779Z,0.00
2018-08-11T01:01:24.777Z,0.00
2018-08-11T01:02:24.828Z,0.00
2018-08-11T01:03:24.771Z,0.00
2018-08-11T01:04:24.768Z,0.00
2018-08-11T01:05:24.766Z,0.00
2018-08-11T01:06:24.769Z,0.00
2018-08-11T01:07:24.768Z,0.00
2018-08-11T01:08:24.769Z,0.00
2018-08-11T01:09:24.765Z,0.00
2018-08-11T01:10:24.758Z,0.00
2018-08-11T01:11:24.760Z,0.00
2018-08-11T01:12:24.760Z,0.00
2018-08-11T01:13:24.758Z,0.00
2018-08-11T01:14:24.751Z,0.00
2018-08-11T01:15:24.749Z,0.00
2018-08-11T01:16:24.750Z,0.00
2018-08-11T01:17:24.747Z,0.00
2018-08-11T01:18:24.748Z,0.00
2018-08-11T01:19:24.749Z,0.00
2018-08-11T01:20:24.743Z,0.00
2018-08-11T01:21:24.743Z,0.00
2018-08-11T01:22:24.737Z,0.00
2018-08-11T01:23:24.735Z,0.00
2018-08-11T01:24:24.736Z,0.00
2018-08-11T01:25:24.730Z,0.00
2018-08-11T01:26:24.738Z,0.00
2018-08-11T01:27:24.733Z,0.00
2018-08-11T01:28:24.726Z,0.00
2018-08-11T01:29:24.722Z,0.00
2018-08-11T01:30:24.725Z,0.00
2018-08-11T01:31:24.723Z,0.00
2018-08-11T01:32:24.720Z,0.00
2018-08-11T01:33:24.720Z,0.00
2018-08-11T01:34:24.715Z,0.00
2018-08-11T01:35:24.712Z,0.00
2018-08-11T01:36:24.707Z,0.00
2018-08-11T01:37:24.705Z,0.00
2018-08-11T01:38:24.707Z,0.00
2018-08-11T01:39:24.706Z,0.00
2018-08-11T01:40:24.704Z,0.00
2018-08-11T01:41:24.702Z,0.00
2018-08-11T01:42:24.699Z,0.00
2018-08-11T01:43:24.693Z,0.00
2018-08-11T01:44:24.812Z,0.00
2018-08-11T01:45:24.694Z,0.00
2018-08-11T01:46:24.686Z,0.00
2018-08-11T01:47:24.684Z,0.00
2018-08-11T01:48:24.681Z,0.00
2018-08-11T01:49:24.682Z,0.00
2018-08-11T01:50:24.681Z,0.00
2018-08-11T01:51:24.681Z,0.00
2018-08-11T01:52:24.680Z,0.00
2018-08-11T01:53:24.674Z,0.00
2018-08-11T01:54:24.709Z,0.00
2018-08-11T01:55:24.666Z,0.00
2018-08-11T01:56:24.664Z,0.00
2018-08-11T01:57:24.662Z,0.00
2018-08-11T01:58:24.666Z,0.00
2018-08-11T01:59:24.663Z,0.00
2018-08-11T02:00:24.655Z,0.00
2018-08-11T02:01:24.653Z,0.00
2018-08-11T02:02:24.661Z,0.00
2018-08-11T02:03:24.655Z,0.00
2018-08-11T02:04:24.652Z,0.00
2018-08-11T02:05:24.651Z,0.00
2018-08-11T02:06:24.644Z,0.00
2018-08-11T02:07:24.642Z,0.00
2018-08-11T02:08:24.638Z,0.00
2018-08-11T02:09:24.636Z,0.00
2018-08-11T02:10:24.639Z,0.00
2018-08-11T02:11:24.639Z,0.00
2018-08-11T02:12:24.633Z,0.00
2018-08-11T02:13:24.632Z,0.00
2018-08-11T02:14:24.626Z,0.00
2018-08-11T02:15:24.623Z,0.00
2018-08-11T02:16:24.625Z,0.00
2018-08-11T02:17:24.622Z,0.00
2018-08-11T02:18:24.617Z,0.00
2018-08-11T02:19:24.614Z,0.00
2018-08-11T02:20:24.612Z,0.00
2018-08-11T02:21:24.609Z,0.00
2018-08-11T02:22:24.612Z,0.00
2018-08-11T02:23:24.610Z,0.00
2018-08-11T02:24:24.606Z,0.00
2018-08-11T02:25:24.604Z,0.00
2018-08-11T02:26:24.596Z,0.00
2018-08-11T02:27:24.595Z,0.00
2018-08-11T02:28:24.591Z,0.00
2018-08-11T02:29:24.591Z,0.00
2018-08-11T02:30:24.591Z,0.00
2018-08-11T02:31:24.589Z,0.00
2018-08-11T02:32:24.582Z,0.00
2018-08-11T02:33:24.579Z,0.00
2018-08-11T02:34:24.661Z,0.00
2018-08-11T02:35:24.578Z,0.00
2018-08-11T02:36:24.576Z,0.00
2018-08-11T02:37:24.574Z,0.00
2018-08-11T02:38:24.572Z,0.00
2018-08-11T02:39:24.564Z,0.00
2018-08-11T02:40:24.562Z,0.00
2018-08-11T02:41:24.559Z,0.00
2018-08-11T02:42:24.561Z,0.00
2018-08-11T02:43:24.559Z,0.00
2018-08-11T02:44:24.555Z,0.00
2018-08-11T02:45:24.556Z,0.00
2018-08-11T02:46:24.545Z,0.00
2018-08-11T02:47:24.543Z,0.00
2018-08-11T02:48:24.544Z,0.00
2018-08-11T02:49:24.541Z,0.00
2018-08-11T02:50:24.537Z,0.00
2018-08-11T02:51:24.533Z,0.00
2018-08-11T02:52:24.531Z,0.00
2018-08-11T02:53:24.530Z,0.00
2018-08-11T02:54:24.529Z,0.00
2018-08-11T02:55:24.528Z,0.00
2018-08-11T02:56:24.523Z,0.00
2018-08-11T02:57:24.522Z,0.00
2018-08-11T02:58:24.514Z,0.00
2018-08-11T02:59:24.511Z,0.00
2018-08-11T03:00:24.508Z,0.00
2018-08-11T03:01:24.506Z,0.00
2018-08-11T03:02:24.570Z,0.00
2018-08-11T03:03:24.505Z,0.00
2018-08-11T03:04:24.497Z,0.00
2018-08-11T03:05:24.495Z,0.00
2018-08-11T03:06:24.496Z,0.00
2018-08-11T03:07:24.493Z,0.00
2018-08-11T03:08:24.491Z,0.00
2018-08-11T03:09:24.489Z,0.00
2018-08-11T03:10:24.482Z,0.00
2018-08-11T03:11:24.478Z,0.00
2018-08-11T03:12:24.474Z,0.00
2018-08-11T03:13:24.472Z,0.00
2018-08-11T03:14:24.473Z,0.00
2018-08-11T03:15:24.510Z,0.00
2018-08-11T03:16:24.475Z,0.00
2018-08-11T03:17:24.464Z,0.00
2018-08-11T03:18:24.458Z,0.00
2018-08-11T03:19:24.460Z,0.00
2018-08-11T03:20:24.458Z,0.00
2018-08-11T03:21:24.454Z,0.00
2018-08-11T03:22:24.446Z,0.00
2018-08-11T03:23:24.444Z,0.00
2018-08-11T03:24:24.438Z,0.00
2018-08-11T03:25:24.436Z,0.00
2018-08-11T03:26:24.440Z,0.00
2018-08-11T03:27:24.434Z,0.00
2018-08-11T03:28:24.430Z,0.00
2018-08-11T03:29:24.429Z,0.00
2018-08-11T03:30:24.421Z,0.00
2018-08-11T03:31:24.420Z,0.00
2018-08-11T03:32:24.413Z,0.00
2018-08-11T03:33:24.411Z,0.00
2018-08-11T03:34:24.415Z,0.00
2018-08-11T03:35:24.411Z,0.00
2018-08-11T03:36:24.401Z,4.00
2018-08-11T03:37:24.400Z,4.00
2018-08-11T03:38:24.401Z,4.00
2018-08-11T03:39:24.398Z,0.00
2018-08-11T03:40:24.393Z,4.00
2018-08-11T03:41:24.390Z,4.00
2018-08-11T03:42:24.387Z,4.00
2018-08-11T03:43:24.380Z,8.00
2018-08-11T03:44:24.379Z,4.00
2018-08-11T03:45:24.374Z,4.00
2018-08-11T03:46:24.375Z,8.00
2018-08-11T03:47:24.372Z,8.00
2018-08-11T03:48:24.369Z,12.00
2018-08-11T03:49:24.366Z,12.00
2018-08-11T03:50:24.359Z,16.00
2018-08-11T03:51:24.356Z,20.00
2018-08-11T03:52:24.387Z,20.00
2018-08-11T03:53:24.354Z,20.00
2018-08-11T03:54:24.347Z,28.00
2018-08-11T03:55:24.343Z,32.00
2018-08-11T03:56:24.338Z,28.00
2018-08-11T03:57:24.336Z,32.00
2018-08-11T03:58:24.337Z,36.00
2018-08-11T03:59:24.335Z,40.00
2018-08-11T04:00:24.331Z,44.00
2018-08-11T04:01:24.328Z,44.00
2018-08-11T04:02:24.321Z,52.00
2018-08-11T04:03:24.319Z,60.00
2018-08-11T04:04:24.317Z,64.00
2018-08-11T04:05:24.312Z,72.00
2018-08-11T04:06:24.313Z,72.00
2018-08-11T04:07:24.312Z,80.00
2018-08-11T04:08:24.302Z,80.00
2018-08-11T04:09:24.302Z,84.00
2018-08-11T04:10:24.303Z,88.00
2018-08-11T04:11:24.299Z,88.00
2018-08-11T04:12:24.294Z,84.00
2018-08-11T04:13:24.291Z,92.00
2018-08-11T04:14:24.284Z,96.00
2018-08-11T04:15:24.282Z,100.00
2018-08-11T04:16:24.278Z,104.00
2018-08-11T04:17:24.275Z,108.00
2018-08-11T04:18:24.278Z,116.00
2018-08-11T04:19:24.276Z,132.00
2018-08-11T04:20:24.270Z,152.00
2018-08-11T04:21:24.268Z,176.00
2018-08-11T04:22:24.261Z,200.00
2018-08-11T04:23:24.258Z,228.00
2018-08-11T04:24:24.260Z,272.00
2018-08-11T04:25:24.257Z,316.00
2018-08-11T04:26:24.251Z,348.00
2018-08-11T04:27:24.247Z,392.00
2018-08-11T04:28:24.244Z,432.00
2018-08-11T04:29:24.242Z,468.00
2018-08-11T04:30:24.245Z,488.00
2018-08-11T04:31:24.242Z,504.00
2018-08-11T04:32:24.239Z,532.00
2018-08-11T04:33:24.237Z,576.00
2018-08-11T04:34:24.229Z,632.00
2018-08-11T04:35:24.226Z,696.00
2018-08-11T04:36:24.222Z,760.00
2018-08-11T04:37:24.221Z,792.00
2018-08-11T04:38:24.221Z,800.00
2018-08-11T04:39:24.220Z,828.00
2018-08-11T04:40:24.211Z,872.00
2018-08-11T04:41:24.209Z,928.00
2018-08-11T04:42:24.211Z,928.00
2018-08-11T04:43:24.209Z,988.00
2018-08-11T04:44:24.205Z,1064.00
2018-08-11T04:45:24.203Z,1116.00
2018-08-11T04:46:24.195Z,1196.00
2018-08-11T04:47:24.193Z,1284.00
2018-08-11T04:48:24.189Z,1352.00
2018-08-11T04:49:24.188Z,1420.00
2018-08-11T04:50:24.190Z,1460.00
2018-08-11T04:51:24.187Z,1524.00
2018-08-11T04:52:24.182Z,1652.00
2018-08-11T04:53:24.180Z,1816.00
2018-08-11T04:54:24.172Z,1916.00
2018-08-11T04:55:24.172Z,2064.00
2018-08-11T04:56:24.172Z,2180.00
2018-08-11T04:57:24.169Z,2340.00
2018-08-11T04:58:24.162Z,2768.00
2018-08-11T04:59:24.160Z,2444.00
2018-08-11T05:00:24.157Z,3156.00
2018-08-11T05:01:24.156Z,2968.00
2018-08-11T05:02:24.157Z,2660.00
2018-08-11T05:03:24.157Z,3268.00
2018-08-11T05:04:24.150Z,2580.00
2018-08-11T05:05:24.148Z,2804.00
2018-08-11T05:06:24.141Z,2752.00
2018-08-11T05:07:24.138Z,3128.00
2018-08-11T05:08:24.135Z,6324.00
2018-08-11T05:09:24.134Z,7064.00
2018-08-11T05:10:24.135Z,8004.00
2018-08-11T05:11:24.132Z,6400.00
2018-08-11T05:12:24.128Z,8852.00
2018-08-11T05:13:24.124Z,5848.00
2018-08-11T05:14:24.125Z,9004.00
2018-08-11T05:15:24.124Z,7552.00
2018-08-11T05:16:24.121Z,7736.00
2018-08-11T05:17:24.119Z,6508.00
2018-08-11T05:18:24.112Z,4588.00
2018-08-11T05:19:24.111Z,10232.00
2018-08-11T05:20:24.109Z,10648.00
2018-08-11T05:21:24.107Z,4672.00
2018-08-11T05:22:24.120Z,4276.00
2018-08-11T05:23:24.110Z,11548.00
2018-08-11T05:24:24.108Z,13760.00
2018-08-11T05:25:24.108Z,11340.00
2018-08-11T05:26:24.119Z,14752.00
2018-08-11T05:27:24.102Z,11192.00
2018-08-11T05:28:24.108Z,8872.00
2018-08-11T05:29:24.105Z,8852.00
2018-08-11T05:30:24.099Z,6092.00
2018-08-11T05:31:24.100Z,4892.00
2018-08-11T05:32:24.095Z,4844.00
2018-08-11T05:33:24.095Z,4924.00
2018-08-11T05:34:24.100Z,5020.00
2018-08-11T05:35:24.102Z,5264.00
2018-08-11T05:36:24.098Z,6016.00
2018-08-11T05:37:24.099Z,6428.00
2018-08-11T05:38:24.095Z,5880.00
2018-08-11T05:39:24.094Z,14272.00
2018-08-11T05:40:24.093Z,10752.00
2018-08-11T05:41:24.095Z,7952.00
2018-08-11T05:42:24.099Z,7900.00
2018-08-11T05:43:24.098Z,13980.00
2018-08-11T05:44:24.096Z,13312.00
2018-08-11T05:45:24.094Z,9648.00
2018-08-11T05:46:24.099Z,14592.00
2018-08-11T05:47:24.099Z,19328.00
2018-08-11T05:48:24.096Z,13908.00
2018-08-11T05:49:24.101Z,7672.00
2018-08-11T05:50:24.093Z,20736.00
2018-08-11T05:51:24.094Z,19840.00
2018-08-11T05:52:24.095Z,13260.00
2018-08-11T05:53:24.095Z,18912.00
2018-08-11T05:54:24.106Z,10060.00
2018-08-11T05:55:24.106Z,8936.00
2018-08-11T05:56:24.109Z,16288.00
2018-08-11T05:57:24.110Z,23360.00
2018-08-11T05:58:24.105Z,21568.00
2018-08-11T05:59:24.106Z,11716.00
2018-08-11T06:00:24.114Z,8188.00
2018-08-11T06:01:24.116Z,6456.00
2018-08-11T06:02:24.112Z,7648.00
2018-08-11T06:03:24.112Z,8996.00
2018-08-11T06:04:24.113Z,8664.00
2018-08-11T06:05:24.115Z,14468.00
2018-08-11T06:06:24.122Z,22688.00
2018-08-11T06:07:24.128Z,28032.00
2018-08-11T06:08:24.131Z,10464.00
2018-08-11T06:09:24.132Z,13588.00
2018-08-11T06:10:24.151Z,8608.00
2018-08-11T06:11:24.132Z,7304.00
2018-08-11T06:12:24.131Z,9084.00
2018-08-11T06:13:24.133Z,10608.00
2018-08-11T06:14:24.141Z,26848.00
2018-08-11T06:15:24.144Z,28544.00
2018-08-11T06:16:24.140Z,27296.00
2018-08-11T06:17:24.144Z,25952.00
2018-08-11T06:18:24.150Z,28768.00
2018-08-11T06:19:24.152Z,27904.00
2018-08-11T06:20:24.157Z,28160.00
2018-08-11T06:21:24.159Z,8296.00
2018-08-11T06:22:24.157Z,29056.00
2018-08-11T06:23:24.161Z,29472.00
2018-08-11T06:24:24.167Z,30816.00
2018-08-11T06:25:24.167Z,29856.00
2018-08-11T06:26:24.177Z,20064.00
2018-08-11T06:27:24.182Z,10108.00
2018-08-11T06:28:24.183Z,30176.00
2018-08-11T06:29:24.187Z,28864.00
2018-08-11T06:30:24.188Z,30592.00
2018-08-11T06:31:24.215Z,30048.00
2018-08-11T06:32:24.201Z,29600.00
2018-08-11T06:33:24.206Z,30208.00
2018-08-11T06:34:24.209Z,27264.00
2018-08-11T06:35:24.212Z,30592.00
2018-08-11T06:36:24.218Z,30208.00
2018-08-11T06:37:24.223Z,12268.00
2018-08-11T06:38:24.234Z,31712.00
2018-08-11T06:39:24.243Z,31328.00
2018-08-11T06:40:24.297Z,31584.00
2018-08-11T06:41:24.252Z,31200.00
2018-08-11T06:42:24.255Z,30656.00
2018-08-11T06:43:24.275Z,31968.00
2018-08-11T06:44:24.269Z,34336.00
2018-08-11T06:45:24.274Z,32736.00
2018-08-11T06:46:24.283Z,33824.00
2018-08-11T06:47:24.292Z,33184.00
2018-08-11T06:48:24.297Z,33888.00
2018-08-11T06:49:24.306Z,34528.00
2018-08-11T06:50:24.316Z,34976.00
2018-08-11T06:51:24.322Z,27392.00
2018-08-11T06:52:24.330Z,33152.00
2018-08-11T06:53:24.338Z,35072.00
2018-08-11T06:54:24.342Z,21696.00
2018-08-11T06:55:24.362Z,33376.00
2018-08-11T06:56:24.359Z,34464.00
2018-08-11T06:57:24.368Z,35904.00
2018-08-11T06:58:24.385Z,32672.00
2018-08-11T06:59:24.395Z,12316.00
2018-08-11T07:00:24.401Z,34016.00
2018-08-11T07:01:24.414Z,34880.00
2018-08-11T07:02:24.417Z,34432.00
2018-08-11T07:03:24.425Z,33696.00
2018-08-11T07:04:24.441Z,34464.00
2018-08-11T07:05:24.447Z,34432.00
2018-08-11T07:06:24.476Z,34240.00
2018-08-11T07:07:24.465Z,35360.00
2018-08-11T07:08:24.524Z,35456.00
2018-08-11T07:09:24.483Z,36160.00
2018-08-11T07:10:24.498Z,8476.00
2018-08-11T07:11:24.508Z,36832.00
2018-08-11T07:12:24.521Z,17376.00
2018-08-11T07:13:24.530Z,37920.00
2018-08-11T07:14:24.537Z,36416.00
2018-08-11T07:15:24.670Z,34560.00
2018-08-11T07:16:24.556Z,37632.00
2018-08-11T07:17:24.567Z,38176.00
2018-08-11T07:18:24.582Z,37216.00
2018-08-11T07:19:24.594Z,38112.00
2018-08-11T07:20:24.598Z,38336.00
2018-08-11T07:21:24.639Z,39008.00
2018-08-11T07:22:24.626Z,38976.00
2018-08-11T07:23:24.637Z,38240.00
2018-08-11T07:24:24.650Z,39072.00
2018-08-11T07:25:24.662Z,37024.00
2018-08-11T07:26:24.673Z,39168.00
2018-08-11T07:27:24.680Z,39200.00
2018-08-11T07:28:24.692Z,40096.00
2018-08-11T07:29:24.704Z,41408.00
2018-08-11T07:30:24.721Z,44320.00
2018-08-11T07:31:24.732Z,43584.00
2018-08-11T07:32:24.744Z,44096.00
2018-08-11T07:33:24.757Z,40128.00
2018-08-11T07:34:24.765Z,43456.00
2018-08-11T07:35:24.779Z,43808.00
2018-08-11T07:36:24.891Z,45600.00
2018-08-11T07:37:24.807Z,48480.00
2018-08-11T07:38:24.817Z,55104.00
2018-08-11T07:39:24.829Z,62656.00
2018-08-11T07:40:24.841Z,71712.00
2018-08-11T07:41:24.854Z,78144.00
2018-08-11T07:42:24.872Z,80672.00
2018-08-11T07:43:24.940Z,74528.00
2018-08-11T07:44:24.898Z,68288.00
2018-08-11T07:45:24.913Z,70080.00
2018-08-11T07:46:24.924Z,73408.00
2018-08-11T07:47:24.968Z,72608.00
2018-08-11T07:48:24.949Z,72096.00
2018-08-11T07:49:24.961Z,73440.00
2018-08-11T07:50:25.048Z,79680.00
2018-08-11T07:51:24.994Z,82464.00
2018-08-11T07:52:25.002Z,18560.00
2018-08-11T07:53:25.018Z,90048.00
2018-08-11T07:54:25.035Z,20832.00
2018-08-11T07:55:25.050Z,72992.00
2018-08-11T07:56:25.062Z,92320.00
2018-08-11T07:57:25.076Z,53824.00
2018-08-11T07:58:25.088Z,91840.00
2018-08-11T07:59:25.100Z,95744.00
2018-08-11T08:00:25.114Z,99136.00
2018-08-11T08:01:25.156Z,69728.00
2018-08-11T08:02:25.148Z,106752.00
2018-08-11T08:03:25.163Z,106528.00
2018-08-11T08:04:25.177Z,102016.00
2018-08-11T08:05:25.192Z,97312.00
2018-08-11T08:06:25.202Z,96960.00
2018-08-11T08:07:25.218Z,91008.00
2018-08-11T08:08:25.235Z,67296.00
2018-08-11T08:09:25.260Z,68736.00
2018-08-11T08:10:25.265Z,64256.00
2018-08-11T08:11:25.273Z,63648.00
2018-08-11T08:12:25.307Z,66592.00
2018-08-11T08:13:25.302Z,62848.00
2018-08-11T08:14:25.320Z,58944.00
2018-08-11T08:15:25.336Z,23360.00
2018-08-11T08:16:25.348Z,11672.00
2018-08-11T08:17:25.365Z,10004.00
2018-08-11T08:18:25.372Z,48352.00
2018-08-11T08:19:25.384Z,48608.00
2018-08-11T08:20:25.397Z,48704.00
2018-08-11T08:21:25.409Z,36256.00
2018-08-11T08:22:25.428Z,9484.00
2018-08-11T08:23:25.442Z,10120.00
2018-08-11T08:24:25.454Z,9616.00
2018-08-11T08:25:25.458Z,5496.00
2018-08-11T08:26:25.734Z,7096.00
2018-08-11T08:27:25.487Z,42208.00
2018-08-11T08:28:25.496Z,42560.00
2018-08-11T08:29:25.507Z,49056.00
2018-08-11T08:30:25.514Z,48704.00
2018-08-11T08:31:25.524Z,48608.00
2018-08-11T08:32:25.534Z,50592.00
2018-08-11T08:33:25.544Z,36864.00
2018-08-11T08:34:25.559Z,26240.00
2018-08-11T08:35:25.571Z,11872.00
2018-08-11T08:36:25.582Z,18016.00
2018-08-11T08:37:25.595Z,8744.00
2018-08-11T08:38:25.598Z,48384.00
2018-08-11T08:39:25.611Z,34848.00
2018-08-11T08:40:25.625Z,46048.00
2018-08-11T08:41:25.636Z,10584.00
2018-08-11T08:42:25.641Z,17184.00
2018-08-11T08:43:25.653Z,12180.00
2018-08-11T08:44:25.660Z,12260.00
2018-08-11T08:45:25.670Z,49376.00
2018-08-11T08:46:25.683Z,18784.00
2018-08-11T08:47:25.710Z,44288.00
2018-08-11T08:48:25.701Z,7396.00
2018-08-11T08:49:25.711Z,6152.00
2018-08-11T08:50:25.714Z,6144.00
2018-08-11T08:51:25.723Z,43072.00
2018-08-11T08:52:25.731Z,43392.00
2018-08-11T08:53:25.822Z,43808.00
2018-08-11T08:54:25.753Z,43680.00
2018-08-11T08:55:25.761Z,46240.00
2018-08-11T08:56:25.764Z,50592.00
2018-08-11T08:57:25.772Z,50784.00
2018-08-11T08:58:25.785Z,51264.00
2018-08-11T08:59:25.795Z,50336.00
2018-08-11T09:00:25.802Z,50752.00
2018-08-11T09:01:25.811Z,45984.00
2018-08-11T09:02:25.817Z,11712.00
2018-08-11T09:03:25.829Z,47520.00
2018-08-11T09:04:25.836Z,49920.00
2018-08-11T09:05:25.851Z,11764.00
2018-08-11T09:06:25.861Z,52000.00
2018-08-11T09:07:25.873Z,50944.00
2018-08-11T09:08:25.882Z,50912.00
2018-08-11T09:09:25.895Z,52160.00
2018-08-11T09:10:25.904Z,54720.00
2018-08-11T09:11:25.910Z,52992.00
2018-08-11T09:12:25.927Z,11072.00
2018-08-11T09:13:25.938Z,10424.00
2018-08-11T09:14:25.946Z,54784.00
2018-08-11T09:15:25.959Z,47616.00
2018-08-11T09:16:25.966Z,56224.00
2018-08-11T09:17:25.978Z,56192.00
2018-08-11T09:18:25.997Z,19744.00
2018-08-11T09:19:26.018Z,6764.00
2018-08-11T09:20:26.017Z,6420.00
2018-08-11T09:21:26.028Z,5840.00
2018-08-11T09:22:26.035Z,8484.00
2018-08-11T09:23:26.045Z,36448.00
2018-08-11T09:24:26.056Z,9544.00
2018-08-11T09:25:26.065Z,51680.00
2018-08-11T09:26:26.081Z,56832.00
2018-08-11T09:27:26.091Z,14856.00
2018-08-11T09:28:26.095Z,54176.00
2018-08-11T09:29:26.104Z,61632.00
2018-08-11T09:30:26.119Z,38496.00
2018-08-11T09:31:26.129Z,62592.00
2018-08-11T09:32:26.136Z,12856.00
2018-08-11T09:33:26.146Z,10624.00
2018-08-11T09:34:26.152Z,7856.00
2018-08-11T09:35:26.163Z,10560.00
2018-08-11T09:36:26.172Z,23296.00
2018-08-11T09:37:26.185Z,7560.00
2018-08-11T09:38:26.327Z,8692.00
2018-08-11T09:39:26.206Z,11008.00
2018-08-11T09:40:26.212Z,12488.00
2018-08-11T09:41:26.224Z,50048.00
2018-08-11T09:42:26.226Z,10256.00
2018-08-11T09:43:26.235Z,8864.00
2018-08-11T09:44:26.247Z,43552.00
2018-08-11T09:45:26.255Z,27584.00
2018-08-11T09:46:26.258Z,11516.00
2018-08-11T09:47:26.265Z,6504.00
2018-08-11T09:48:26.277Z,4976.00
2018-08-11T09:49:26.283Z,4696.00
2018-08-11T09:50:26.293Z,39168.00
2018-08-11T09:51:26.300Z,38656.00
2018-08-11T09:52:26.307Z,38624.00
2018-08-11T09:53:26.314Z,38048.00
2018-08-11T09:54:26.318Z,37728.00
2018-08-11T09:55:26.324Z,38944.00
2018-08-11T09:56:26.330Z,39008.00
2018-08-11T09:57:26.339Z,38336.00
2018-08-11T09:58:26.352Z,38432.00
2018-08-11T09:59:26.361Z,40960.00
2018-08-11T10:00:26.362Z,70912.00
2018-08-11T10:01:26.372Z,7776.00
2018-08-11T10:02:26.387Z,112160.00
2018-08-11T10:03:26.396Z,99488.00
2018-08-11T10:04:26.408Z,92992.00
2018-08-11T10:05:26.415Z,95040.00
2018-08-11T10:06:26.421Z,99712.00
2018-08-11T10:07:26.432Z,98656.00
2018-08-11T10:08:26.441Z,93280.00
2018-08-11T10:09:26.455Z,89024.00
2018-08-11T10:10:26.508Z,13532.00
2018-08-11T10:11:26.480Z,8412.00
2018-08-11T10:12:26.494Z,7336.00
2018-08-11T10:13:26.501Z,7620.00
2018-08-11T10:14:26.507Z,7364.00
2018-08-11T10:15:26.519Z,7232.00
2018-08-11T10:16:26.532Z,8192.00
2018-08-11T10:17:26.543Z,9544.00
2018-08-11T10:18:26.587Z,10056.00
2018-08-11T10:19:26.561Z,62112.00
2018-08-11T10:20:26.569Z,11348.00
2018-08-11T10:21:26.577Z,12464.00
2018-08-11T10:22:26.592Z,90368.00
2018-08-11T10:23:26.600Z,18048.00
2018-08-11T10:24:26.607Z,77824.00
2018-08-11T10:25:26.616Z,80384.00
2018-08-11T10:26:26.620Z,81472.00
2018-08-11T10:27:26.628Z,80064.00
2018-08-11T10:28:26.637Z,80064.00
2018-08-11T10:29:26.643Z,78656.00
2018-08-11T10:30:26.657Z,76768.00
2018-08-11T10:31:26.666Z,71360.00
2018-08-11T10:32:26.670Z,72192.00
2018-08-11T10:33:26.680Z,70816.00
2018-08-11T10:34:26.694Z,72288.00
2018-08-11T10:35:26.705Z,71296.00
2018-08-11T10:36:26.714Z,69408.00
2018-08-11T10:37:26.725Z,68896.00
2018-08-11T10:38:26.732Z,67296.00
2018-08-11T10:39:26.743Z,66912.00
2018-08-11T10:40:26.754Z,65536.00
2018-08-11T10:41:26.765Z,65632.00
2018-08-11T10:42:26.782Z,69312.00
2018-08-11T10:43:26.795Z,40800.00
2018-08-11T10:44:26.807Z,12108.00
2018-08-11T10:45:26.819Z,13588.00
2018-08-11T10:46:26.827Z,15840.00
2018-08-11T10:47:26.840Z,35488.00
2018-08-11T10:48:26.856Z,13580.00
2018-08-11T10:49:26.870Z,9236.00
2018-08-11T10:50:26.877Z,8896.00
2018-08-11T10:51:26.885Z,66432.00
2018-08-11T10:52:26.895Z,8284.00
2018-08-11T10:53:26.908Z,10756.00
2018-08-11T10:54:26.922Z,7048.00
2018-08-11T10:55:26.932Z,8764.00
2018-08-11T10:56:26.940Z,68192.00
2018-08-11T10:57:26.950Z,16864.00
2018-08-11T10:58:26.957Z,9816.00
2018-08-11T10:59:26.967Z,8028.00
2018-08-11T11:00:26.973Z,7964.00
2018-08-11T11:01:26.990Z,11064.00
2018-08-11T11:02:26.996Z,11288.00
2018-08-11T11:03:27.003Z,10788.00
2018-08-11T11:04:27.006Z,18240.00
2018-08-11T11:05:27.013Z,71648.00
2018-08-11T11:06:27.027Z,57184.00
2018-08-11T11:07:27.034Z,40992.00
2018-08-11T11:08:27.090Z,77088.00
2018-08-11T11:09:27.046Z,76192.00
2018-08-11T11:10:27.050Z,77440.00
2018-08-11T11:11:27.061Z,74976.00
2018-08-11T11:12:27.064Z,70400.00
2018-08-11T11:13:27.072Z,56096.00
2018-08-11T11:14:27.085Z,6172.00
2018-08-11T11:15:27.096Z,5396.00
2018-08-11T11:16:27.106Z,5396.00
2018-08-11T11:17:27.111Z,6076.00
2018-08-11T11:18:27.113Z,5836.00
2018-08-11T11:19:27.123Z,8236.00
2018-08-11T11:20:27.140Z,86400.00
2018-08-11T11:21:27.145Z,87456.00
2018-08-11T11:22:27.145Z,90368.00
2018-08-11T11:23:27.153Z,80320.00
2018-08-11T11:24:27.161Z,92736.00
2018-08-11T11:25:27.167Z,94112.00
2018-08-11T11:26:27.179Z,38272.00
2018-08-11T11:27:27.189Z,57152.00
2018-08-11T11:28:27.194Z,22144.00
2018-08-11T11:29:27.201Z,13240.00
2018-08-11T11:30:27.205Z,11348.00
2018-08-11T11:31:27.212Z,10920.00
2018-08-11T11:32:27.219Z,11572.00
2018-08-11T11:33:27.227Z,11656.00
2018-08-11T11:34:27.244Z,12012.00
2018-08-11T11:35:27.246Z,13620.00
2018-08-11T11:36:27.249Z,12336.00
2018-08-11T11:37:27.256Z,11176.00
2018-08-11T11:38:27.267Z,9148.00
2018-08-11T11:39:27.274Z,8760.00
2018-08-11T11:40:27.278Z,7500.00
2018-08-11T11:41:27.285Z,10168.00
2018-08-11T11:42:27.287Z,10460.00
2018-08-11T11:43:27.387Z,10452.00
2018-08-11T11:44:27.298Z,9904.00
2018-08-11T11:45:27.305Z,9788.00
2018-08-11T11:46:27.316Z,9664.00
2018-08-11T11:47:27.321Z,9192.00
2018-08-11T11:48:27.324Z,9052.00
2018-08-11T11:49:27.330Z,9332.00
2018-08-11T11:50:27.331Z,8456.00
2018-08-11T11:51:27.338Z,9332.00
2018-08-11T11:52:27.347Z,9392.00
2018-08-11T11:53:27.350Z,9996.00
2018-08-11T11:54:27.351Z,11772.00
2018-08-11T11:55:27.360Z,12072.00
2018-08-11T11:56:27.362Z,10236.00
2018-08-11T11:57:27.366Z,9772.00
2018-08-11T11:58:27.376Z,9608.00
2018-08-11T11:59:27.380Z,7768.00
2018-08-11T12:00:27.384Z,6712.00
2018-08-11T12:01:27.389Z,8760.00
2018-08-11T12:02:27.389Z,10220.00
2018-08-11T12:03:27.394Z,8704.00
2018-08-11T12:04:27.396Z,8216.00
2018-08-11T12:05:27.404Z,7312.00
2018-08-11T12:06:27.409Z,6224.00
2018-08-11T12:07:27.413Z,7584.00
2018-08-11T12:08:27.413Z,7932.00
2018-08-11T12:09:27.417Z,8004.00
2018-08-11T12:10:27.425Z,7268.00
2018-08-11T12:11:27.431Z,6644.00
2018-08-11T12:12:27.433Z,6236.00
2018-08-11T12:13:27.438Z,5620.00
2018-08-11T12:14:27.437Z,6948.00
2018-08-11T12:15:27.442Z,6348.00
2018-08-11T12:16:27.444Z,6996.00
2018-08-11T12:17:27.449Z,7064.00
2018-08-11T12:18:27.459Z,6556.00
2018-08-11T12:19:27.509Z,6392.00